Time;durP1;ratioP1;P1;durP2;ratioP2;P2;SDS_P1;SDS_P2;PMS_P1;PMS_P2;Temp;Humidity;BMP_temperature;BMP_pressure;BME280_temperature;BME280_humidity;BME280_pressure;Samples;Min_cycle;Max_cycle;Signal;HPM_P1;HPM_P2
2021/10/25 00:01:48;;;;;;;;;;;;;;;;;;5050078;28;20346;-77
2021/10/25 00:04:15;;;;;;;;;;;;;;;;;;5050857;28;19928;-77
2021/10/25 00:06:42;;;;;;;;;;;;;;;;;;5051569;28;20289;-78
2021/10/25 00:09:09;;;;;;;;;;;;;;;;;;5049342;28;19940;-78
2021/10/25 00:11:38;;;;;;;;;;;;;;;;;;5050306;28;19940;-77
2021/10/25 00:14:05;;;;;;;;;;;;;;;;;;5070339;28;19928;-77
2021/10/25 00:16:32;;;;;;;;;;;;;;;;;;5070137;28;19939;-79
2021/10/25 00:18:59;;;;;;;;;;;;;;;;;;5070877;28;19928;-79
2021/10/25 00:21:26;;;;;;;;;;;;;;;;;;5070531;28;19928;-78
2021/10/25 00:23:53;;;;;;;;;;;;;;;;;;5069979;28;19929;-81
2021/10/25 00:26:20;;;;;;;;;;;;;;;;;;5069844;28;19928;-78
2021/10/25 00:28:49;;;;;;;;;;;;;;;;;;5070416;28;19939;-80
2021/10/25 00:31:16;;;;;;;;;;;;;;;;;;5070608;28;19924;-79
2021/10/25 00:33:43;;;;;;;;;;;;;;;;;;5069753;28;20350;-78
2021/10/25 00:36:10;;;;;;;;;;;;;;;;;;5070502;28;19928;-78
2021/10/25 00:38:37;;;;;;;;;;;;;;;;;;5069725;28;19929;-79
2021/10/25 00:41:05;;;;;;;;;;;;;;;;;;5070329;28;19958;-78
2021/10/25 00:43:32;;;;;;;;;;;;;;;;;;5069692;28;19925;-79
2021/10/25 00:46:00;;;;;;;;;;;;;;;;;;5070423;28;20191;-79
2021/10/25 00:48:27;;;;;;;;;;;;;;;;;;5069320;28;19939;-80
2021/10/25 00:50:55;;;;;;;;;;;;;;;;;;5070083;28;19928;-77
2021/10/25 00:53:22;;;;;;;;;;;;;;;;;;5069573;28;20015;-78
2021/10/25 00:55:50;;;;;;;;;;;;;;;;;;5069184;28;19938;-78
2021/10/25 00:58:17;;;;;;;;;;;;;;;;;;5070576;28;19928;-78
2021/10/25 01:00:44;;;;;;;;;;;;;;;;;;5069995;28;19935;-78
2021/10/25 01:03:13;;;;;;;;;;;;;;;;;;5071139;28;19924;-79
2021/10/25 01:05:40;;;;;;;;;;;;;;;;;;5069114;28;19975;-78
2021/10/25 01:08:07;;;;;;;;;;;;;;;;;;5070133;28;19924;-79
2021/10/25 01:10:35;;;;;;;;;;;;;;;;;;5069383;28;19928;-79
2021/10/25 01:13:02;;;;;;;;;;;;;;;;;;5069620;28;20384;-78
2021/10/25 01:15:29;;;;;;;;;;;;;;;;;;5068452;28;19928;-79
2021/10/25 01:17:57;;;;;;;;;;;;;;;;;;5049005;28;19925;-79
2021/10/25 01:20:26;;;;;;;;;;;;;;;;;;5051070;28;19924;-78
2021/10/25 01:22:54;;;;;;;;;;;;;;;;;;5053436;28;19924;-77
2021/10/25 01:25:21;;;;;;;;;;;;;;;;;;5053923;28;19979;-77
2021/10/25 01:27:48;;;;;;;;;;;;;;;;;;5053596;28;20023;-77
2021/10/25 01:30:16;;;;;;;;;;;;;;;;;;5055879;28;19928;-79
2021/10/25 01:32:45;;;;;;;;;;;;;;;;;;5073566;28;19935;-77
2021/10/25 01:35:12;;;;;;;;;;;;;;;;;;5073427;28;19962;-77
2021/10/25 01:37:40;;;;;;;;;;;;;;;;;;5072658;28;19928;-77
2021/10/25 01:40:11;;;;;;;;;;;;;;;;;;5073896;28;19928;-78
2021/10/25 01:42:38;;;;;;;;;;;;;;;;;;5073318;28;19928;-77
2021/10/25 01:45:06;;;;;;;;;;;;;;;;;;5073014;28;20270;-79
2021/10/25 01:47:33;;;;;;;;;;;;;;;;;;5072401;28;19924;-79
2021/10/25 01:50:00;;;;;;;;;;;;;;;;;;5073519;28;19929;-77
2021/10/25 01:52:28;;;;;;;;;;;;;;;;;;5073073;28;19932;-77
2021/10/25 01:54:56;;;;;;;;;;;;;;;;;;5072758;28;19929;-79
2021/10/25 01:57:23;;;;;;;;;;;;;;;;;;5073565;28;20269;-77
2021/10/25 01:59:50;;;;;;;;;;;;;;;;;;5073664;28;19929;-80
2021/10/25 02:02:17;;;;;;;;;;;;;;;;;;5073264;28;19928;-80
2021/10/25 02:04:44;;;;;;;;;;;;;;;;;;5072518;28;19932;-79
2021/10/25 02:07:12;;;;;;;;;;;;;;;;;;5073260;28;19925;-79
2021/10/25 02:09:39;;;;;;;;;;;;;;;;;;5072882;28;20288;-79
2021/10/25 02:12:07;;;;;;;;;;;;;;;;;;5072803;28;19939;-79
2021/10/25 02:14:34;;;;;;;;;;;;;;;;;;5072521;28;19939;-78
2021/10/25 02:17:02;;;;;;;;;;;;;;;;;;5073359;28;20405;-77
2021/10/25 02:19:29;;;;;;;;;;;;;;;;;;5073131;28;19995;-78
2021/10/25 02:21:56;;;;;;;;;;;;;;;;;;5072302;28;19945;-77
2021/10/25 02:24:24;;;;;;;;;;;;;;;;;;5072319;28;19931;-79
2021/10/25 02:26:51;;;;;;;;;;;;;;;;;;5072345;28;19925;-79
2021/10/25 02:29:19;;;;;;;;;;;;;;;;;;5072753;28;19932;-78
2021/10/25 02:31:46;;;;;;;;;;;;;;;;;;5070645;28;19925;-78
2021/10/25 02:34:13;;;;;;;;;;;;;;;;;;5073172;28;19925;-79
2021/10/25 02:36:40;;;;;;;;;;;;;;;;;;5072391;28;20392;-79
2021/10/25 02:39:08;;;;;;;;;;;;;;;;;;5072619;28;19929;-80
2021/10/25 02:41:35;;;;;;;;;;;;;;;;;;5072136;28;20011;-77
2021/10/25 02:44:02;;;;;;;;;;;;;;;;;;5072288;28;19924;-79
2021/10/25 02:46:30;;;;;;;;;;;;;;;;;;5072501;28;19924;-79
2021/10/25 02:48:57;;;;;;;;;;;;;;;;;;5072101;28;19932;-78
2021/10/25 02:51:25;;;;;;;;;;;;;;;;;;5072559;28;20031;-78
2021/10/25 02:53:52;;;;;;;;;;;;;;;;;;5072307;28;20035;-77
2021/10/25 02:56:19;;;;;;;;;;;;;;;;;;5072671;28;19925;-77
2021/10/25 02:58:46;;;;;;;;;;;;;;;;;;5072124;28;20361;-79
2021/10/25 03:01:13;;;;;;;;;;;;;;;;;;5071278;28;20458;-79
2021/10/25 03:03:43;;;;;;;;;;;;;;;;;;5072261;28;20361;-77
2021/10/25 03:06:10;;;;;;;;;;;;;;;;;;5071114;28;20384;-79
2021/10/25 03:08:38;;;;;;;;;;;;;;;;;;5071913;28;19940;-79
2021/10/25 03:11:05;;;;;;;;;;;;;;;;;;5071772;28;19929;-78
2021/10/25 03:13:32;;;;;;;;;;;;;;;;;;5071115;28;19928;-79
2021/10/25 03:16:00;;;;;;;;;;;;;;;;;;5071204;28;19955;-79
2021/10/25 03:18:27;;;;;;;;;;;;;;;;;;5070974;28;19940;-78
2021/10/25 03:20:56;;;;;;;;;;;;;;;;;;5072675;28;19924;-80
2021/10/25 03:23:23;;;;;;;;;;;;;;;;;;5072378;28;19931;-79
2021/10/25 03:25:50;;;;;;;;;;;;;;;;;;5071362;28;19938;-79
2021/10/25 03:28:17;;;;;;;;;;;;;;;;;;5070902;28;19935;-79
2021/10/25 03:30:46;;;;;;;;;;;;;;;;;;5071693;28;19928;-79
2021/10/25 03:33:13;;;;;;;;;;;;;;;;;;5071402;28;19932;-79
2021/10/25 03:35:40;;;;;;;;;;;;;;;;;;5070390;28;19929;-79
2021/10/25 03:38:11;;;;;;;;;;;;;;;;;;5070915;28;19928;-80
2021/10/25 03:40:39;;;;;;;;;;;;;;;;;;5070812;28;19940;-79
2021/10/25 03:43:07;;;;;;;;;;;;;;;;;;5071415;28;19924;-79
2021/10/25 03:45:37;;;;;;;;;;;;;;;;;;5071547;28;19929;-79
2021/10/25 03:48:10;;;;;;;;;;;;;;;;;;5070349;28;20313;-79
2021/10/25 03:50:38;;;;;;;;;;;;;;;;;;5071059;28;19924;-78
2021/10/25 03:53:09;;;;;;;;;;;;;;;;;;5072138;28;19936;-78
2021/10/25 03:55:43;;;;;;;;;;;;;;;;;;5070258;28;19934;-80
2021/10/25 04:04:23;;;;;;;;;;;;;;;;;;5055187;28;19939;-78
2021/10/25 04:26:48;;;;;;;;;;;;;;;;;;5045143;28;19990;-79
2021/10/25 04:29:19;;;;;;;;;;;;;;;;;;5050394;28;19929;-79
2021/10/25 04:31:47;;;;;;;;;;;;;;;;;;5064517;28;19996;-79
2021/10/25 04:34:14;;;;;;;;;;;;;;;;;;5070966;28;19935;-78
2021/10/25 04:36:41;;;;;;;;;;;;;;;;;;5069345;28;19929;-80
2021/10/25 04:39:10;;;;;;;;;;;;;;;;;;5070121;28;20766;-79
2021/10/25 04:41:37;;;;;;;;;;;;;;;;;;5070288;28;19929;-78
2021/10/25 04:44:04;;;;;;;;;;;;;;;;;;5069535;28;19929;-79
2021/10/25 04:46:33;;;;;;;;;;;;;;;;;;5070606;28;19935;-78
2021/10/25 04:49:00;;;;;;;;;;;;;;;;;;5071060;28;19939;-79
2021/10/25 04:51:28;;;;;;;;;;;;;;;;;;5070076;28;19924;-81
2021/10/25 04:53:56;;;;;;;;;;;;;;;;;;5069760;28;19935;-80
2021/10/25 04:56:23;;;;;;;;;;;;;;;;;;5073097;28;19924;-77
2021/10/25 04:58:50;;;;;;;;;;;;;;;;;;5073927;28;19928;-80
2021/10/25 05:01:17;;;;;;;;;;;;;;;;;;5069752;28;19933;-80
2021/10/25 05:03:46;;;;;;;;;;;;;;;;;;5074020;28;19929;-77
2021/10/25 05:06:17;;;;;;;;;;;;;;;;;;5074521;28;19924;-80
2021/10/25 05:08:44;;;;;;;;;;;;;;;;;;5058447;28;19933;-79
2021/10/25 05:11:11;;;;;;;;;;;;;;;;;;5053520;28;19940;-78
2021/10/25 05:13:38;;;;;;;;;;;;;;;;;;5069987;28;19940;-80
2021/10/25 05:16:06;;;;;;;;;;;;;;;;;;5073719;28;19959;-79
2021/10/25 05:18:33;;;;;;;;;;;;;;;;;;5073178;28;19931;-78
2021/10/25 05:21:02;;;;;;;;;;;;;;;;;;5056402;28;19975;-79
2021/10/25 05:23:29;;;;;;;;;;;;;;;;;;5054312;28;19928;-79
2021/10/25 05:25:56;;;;;;;;;;;;;;;;;;5055385;28;20364;-79
2021/10/25 05:28:23;;;;;;;;;;;;;;;;;;5063606;28;19936;-78
2021/10/25 05:30:50;;;;;;;;;;;;;;;;;;5064449;28;20226;-79
2021/10/25 05:33:18;;;;;;;;;;;;;;;;;;5071577;28;20031;-79
2021/10/25 05:35:45;;;;;;;;;;;;;;;;;;5070557;28;20352;-78
2021/10/25 05:38:13;;;;;;;;;;;;;;;;;;5070968;28;19924;-78
2021/10/25 05:40:40;;;;;;;;;;;;;;;;;;5070644;28;20331;-78
2021/10/25 05:43:08;;;;;;;;;;;;;;;;;;5065907;28;19936;-78
2021/10/25 05:45:36;;;;;;;;;;;;;;;;;;5050634;28;20352;-78
2021/10/25 05:48:04;;;;;;;;;;;;;;;;;;5050055;28;19955;-78
2021/10/25 05:50:32;;;;;;;;;;;;;;;;;;5059071;28;19928;-78
2021/10/25 05:53:00;;;;;;;;;;;;;;;;;;5070189;28;19939;-78
2021/10/25 05:55:29;;;;;;;;;;;;;;;;;;5069423;28;20037;-79
2021/10/25 05:57:57;;;;;;;;;;;;;;;;;;5070213;28;19963;-77
2021/10/25 06:00:27;;;;;;;;;;;;;;;;;;5070032;28;19943;-77
2021/10/25 06:02:55;;;;;;;;;;;;;;;;;;5069752;28;20315;-77
2021/10/25 06:05:23;;;;;;;;;;;;;;;;;;5070354;28;19924;-79
2021/10/25 06:07:51;;;;;;;;;;;;;;;;;;5070425;28;19933;-78
2021/10/25 06:10:18;;;;;;;;;;;;;;;;;;5070702;28;19936;-79
2021/10/25 06:12:48;;;;;;;;;;;;;;;;;;5069160;28;20015;-78
2021/10/25 06:15:20;;;;;;;;;;;;;;;;;;5058420;28;20060;-80
2021/10/25 06:17:54;;;;;;;;;;;;;;;;;;5070116;28;19974;-84
2021/10/25 06:20:22;;;;;;;;;;;;;;;;;;5069926;28;19928;-78
2021/10/25 06:22:49;;;;;;;;;;;;;;;;;;5070347;28;19925;-79
2021/10/25 06:25:16;;;;;;;;;;;;;;;;;;5070356;28;19928;-80
2021/10/25 06:27:46;;;;;;;;;;;;;;;;;;5070901;28;20416;-78
2021/10/25 06:30:15;;;;;;;;;;;;;;;;;;5068951;28;19928;-78
2021/10/25 06:32:42;;;;;;;;;;;;;;;;;;5069886;28;19940;-79
2021/10/25 06:35:13;;;;;;;;;;;;;;;;;;5070362;28;20257;-78
2021/10/25 06:37:50;;;;;;;;;;;;;;;;;;5069899;28;20349;-79
2021/10/25 06:40:17;;;;;;;;;;;;;;;;;;5069746;28;19938;-78
2021/10/25 06:42:44;;;;;;;;;;;;;;;;;;5070037;28;19928;-78
2021/10/25 06:45:14;;;;;;;;;;;;;;;;;;5069444;28;19925;-77
2021/10/25 06:47:43;;;;;;;;;;;;;;;;;;5069494;28;19974;-78
2021/10/25 06:50:10;;;;;;;;;;;;;;;;;;5068467;28;20392;-77
2021/10/25 06:52:37;;;;;;;;;;;;;;;;;;5069358;28;19932;-79
2021/10/25 06:55:05;;;;;;;;;;;;;;;;;;5055415;28;19925;-80
2021/10/25 06:57:32;;;;;;;;;;;;;;;;;;5049660;28;19928;-79
2021/10/25 07:00:00;;;;;;;;;;;;;;;;;;5058779;28;19986;-77
2021/10/25 07:02:27;;;;;;;;;;;;;;;;;;5068914;28;19924;-78
2021/10/25 07:04:56;;;;;;;;;;;;;;;;;;5069876;28;19925;-78
2021/10/25 07:07:25;;;;;;;;;;;;;;;;;;5069684;28;19972;-77
2021/10/25 07:09:55;;;;;;;;;;;;;;;;;;5067775;28;20474;-80
2021/10/25 07:12:22;;;;;;;;;;;;;;;;;;5069592;28;19925;-79
2021/10/25 07:14:52;;;;;;;;;;;;;;;;;;5069373;28;19925;-78
2021/10/25 07:17:23;;;;;;;;;;;;;;;;;;5069579;28;19940;-80
2021/10/25 07:20:03;;;;;;;;;;;;;;;;;;5062952;28;19932;-78
2021/10/25 08:06:50;;;;;;;;;;;;;;;;;;5085601;28;19928;-80
2021/10/25 08:09:31;;;;;;;;;;;;;;;;;;5085632;28;19924;-80
2021/10/25 08:12:02;;;;;;;;;;;;;;;;;;5085215;28;20373;-80
2021/10/25 08:14:32;;;;;;;;;;;;;;;;;;5085598;28;20015;-79
2021/10/25 08:17:00;;;;;;;;;;;;;;;;;;5085175;28;20024;-79
2021/10/25 08:19:30;;;;;;;;;;;;;;;;;;5072628;28;19940;-77
2021/10/25 08:21:59;;;;;;;;;;;;;;;;;;5085705;28;20227;-78
2021/10/25 08:24:27;;;;;;;;;;;;;;;;;;5085215;28;19929;-78
2021/10/25 08:26:54;;;;;;;;;;;;;;;;;;5083950;28;19928;-80
2021/10/25 08:29:22;;;;;;;;;;;;;;;;;;5085087;28;19939;-79
2021/10/25 08:31:55;;;;;;;;;;;;;;;;;;5085070;28;20254;-80
2021/10/25 08:39:52;;;;;;;;;;;;;;;;;;5085302;28;20021;-78
2021/10/25 08:42:20;;;;;;;;;;;;;;;;;;5084708;28;20365;-79
2021/10/25 08:44:48;;;;;;;;;;;;;;;;;;5084726;28;19993;-79
2021/10/25 08:47:17;;;;;;;;;;;;;;;;;;5084432;28;20388;-81
2021/10/25 08:49:45;;;;;;;;;;;;;;;;;;5084446;28;20364;-80
2021/10/25 08:52:14;;;;;;;;;;;;;;;;;;5084070;28;20289;-80
2021/10/25 08:54:41;;;;;;;;;;;;;;;;;;5085189;28;19932;-78
2021/10/25 08:57:08;;;;;;;;;;;;;;;;;;5084878;28;20360;-78
2021/10/25 08:59:36;;;;;;;;;;;;;;;;;;5084725;28;19928;-79
2021/10/25 09:02:07;;;;;;;;;;;;;;;;;;5084228;28;20376;-79
2021/10/25 09:04:34;;;;;;;;;;;;;;;;;;5084684;28;20028;-79
2021/10/25 09:07:02;;;;;;;;;;;;;;;;;;5085169;28;19929;-79
2021/10/25 09:09:32;;;;;;;;;;;;;;;;;;5084436;28;19928;-79
2021/10/25 09:12:00;;;;;;;;;;;;;;;;;;5083429;28;19924;-79
2021/10/25 09:14:27;;;;;;;;;;;;;;;;;;5074356;28;19974;-79
2021/10/25 09:16:56;;;;;;;;;;;;;;;;;;5069407;28;19925;-80
2021/10/25 09:19:23;;;;;;;;;;;;;;;;;;5069555;28;19928;-79
2021/10/25 09:21:51;;;;;;;;;;;;;;;;;;5062030;28;19928;-79
2021/10/25 09:24:23;;;;;;;;;;;;;;;;;;5050303;28;19939;-78
2021/10/25 09:26:56;;;;;;;;;;;;;;;;;;5050639;28;20259;-78
2021/10/25 09:29:27;;;;;;;;;;;;;;;;;;5051156;28;19929;-79
2021/10/25 09:31:56;;;;;;;;;;;;;;;;;;5059694;28;19928;-78
2021/10/25 09:34:33;;;;;;;;;;;;;;;;;;5069452;28;19935;-79
2021/10/25 09:37:05;;;;;;;;;;;;;;;;;;5070857;28;19937;-79
2021/10/25 09:39:40;;;;;;;;;;;;;;;;;;5070340;28;20422;-79
2021/10/25 09:42:24;;;;;;;;;;;;;;;;;;5070347;28;20371;-81
2021/10/25 09:45:20;;;;;;;;;;;;;;;;;;5070202;28;19939;-81
2021/10/25 09:50:32;;;;;;;;;;;;;;;;;;5069763;28;19944;-79
2021/10/25 09:52:59;;;;;;;;;;;;;;;;;;5070332;28;20333;-80
2021/10/25 09:55:26;;;;;;;;;;;;;;;;;;5070185;28;19928;-79
2021/10/25 09:58:04;;;;;;;;;;;;;;;;;;5070049;28;19928;-80
2021/10/25 10:00:31;;;;;;;;;;;;;;;;;;5070674;28;20225;-80
2021/10/25 10:02:58;;;;;;;;;;;;;;;;;;5069085;28;19932;-78
2021/10/25 10:05:27;;;;;;;;;;;;;;;;;;5069709;28;20179;-79
2021/10/25 10:07:54;;;;;;;;;;;;;;;;;;5070241;28;19938;-81
2021/10/25 10:10:21;;;;;;;;;;;;;;;;;;5068607;28;19936;-81
2021/10/25 10:12:51;;;;;;;;;;;;;;;;;;5069645;28;20285;-79
2021/10/25 10:15:20;;;;;;;;;;;;;;;;;;5069433;28;19935;-80
2021/10/25 10:17:49;;;;;;;;;;;;;;;;;;5066807;28;20035;-80
2021/10/25 10:20:18;;;;;;;;;;;;;;;;;;5061561;28;19928;-79
2021/10/25 10:22:48;;;;;;;;;;;;;;;;;;5069279;28;19928;-78
2021/10/25 10:25:25;;;;;;;;;;;;;;;;;;5068638;28;19936;-79
2021/10/25 10:27:57;;;;;;;;;;;;;;;;;;5068823;28;19928;-79
2021/10/25 10:30:26;;;;;;;;;;;;;;;;;;5068941;28;19925;-79
2021/10/25 10:32:58;;;;;;;;;;;;;;;;;;5068600;28;20369;-81
2021/10/25 10:35:25;;;;;;;;;;;;;;;;;;5064643;28;19940;-81
2021/10/25 10:38:00;;;;;;;;;;;;;;;;;;5068232;28;19932;-79
2021/10/25 10:40:35;;;;;;;;;;;;;;;;;;5067594;28;19925;-79
2021/10/25 10:43:02;;;;;;;;;;;;;;;;;;5067245;28;20407;-79
2021/10/25 10:45:31;;;;;;;;;;;;;;;;;;5069306;28;19978;-79
2021/10/25 10:47:59;;;;;;;;;;;;;;;;;;5068613;28;20022;-79
2021/10/25 10:50:30;;;;;;;;;;;;;;;;;;5069323;28;19935;-78
2021/10/25 10:53:00;;;;;;;;;;;;;;;;;;5065038;28;19929;-79
2021/10/25 10:55:29;;;;;;;;;;;;;;;;;;5048628;28;19925;-80
2021/10/25 11:00:35;;;;;;;;;;;;;;;;;;5048083;28;20364;-79
2021/10/25 11:03:05;;;;;;;;;;;;;;;;;;5048347;28;19978;-79
2021/10/25 11:05:37;;;;;;;;;;;;;;;;;;5048802;28;19932;-79
2021/10/25 11:08:07;;;;;;;;;;;;;;;;;;5067287;28;19985;-79
2021/10/25 11:10:34;;;;;;;;;;;;;;;;;;5068646;28;19928;-80
2021/10/25 11:13:06;;;;;;;;;;;;;;;;;;5069017;28;19928;-80
2021/10/25 11:15:41;;;;;;;;;;;;;;;;;;5068733;28;19943;-80
2021/10/25 11:18:08;;;;;;;;;;;;;;;;;;5068069;28;19924;-78
2021/10/25 11:20:36;;;;;;;;;;;;;;;;;;5060077;28;19928;-79
2021/10/25 11:23:04;;;;;;;;;;;;;;;;;;5068144;28;20054;-80
2021/10/25 11:25:41;;;;;;;;;;;;;;;;;;5069128;28;19939;-81
2021/10/25 11:28:13;;;;;;;;;;;;;;;;;;5068346;28;19936;-79
2021/10/25 11:30:41;;;;;;;;;;;;;;;;;;5068185;28;19929;-80
2021/10/25 11:33:08;;;;;;;;;;;;;;;;;;5070934;28;19935;-78
2021/10/25 11:35:35;;;;;;;;;;;;;;;;;;5067674;28;19939;-80
2021/10/25 11:38:03;;;;;;;;;;;;;;;;;;5048707;28;19933;-78
2021/10/25 11:40:30;;;;;;;;;;;;;;;;;;5048323;28;19940;-79
2021/10/25 11:43:00;;;;;;;;;;;;;;;;;;5057227;28;19940;-80
2021/10/25 11:45:27;;;;;;;;;;;;;;;;;;5067877;28;19928;-81
2021/10/25 11:47:56;;;;;;;;;;;;;;;;;;5067755;28;19955;-80
2021/10/25 11:50:24;;;;;;;;;;;;;;;;;;5068430;28;20277;-78
2021/10/25 11:52:54;;;;;;;;;;;;;;;;;;5067919;28;20357;-78
2021/10/25 11:55:22;;;;;;;;;;;;;;;;;;5068016;28;20317;-81
2021/10/25 11:57:49;;;;;;;;;;;;;;;;;;5049920;28;19940;-79
2021/10/25 12:00:19;;;;;;;;;;;;;;;;;;5047725;28;19963;-79
2021/10/25 12:02:46;;;;;;;;;;;;;;;;;;5047767;28;19997;-79
2021/10/25 12:05:20;;;;;;;;;;;;;;;;;;5067892;28;19928;-78
2021/10/25 12:07:48;;;;;;;;;;;;;;;;;;5067331;28;20373;-79
2021/10/25 12:10:16;;;;;;;;;;;;;;;;;;5068017;28;19929;-80
2021/10/25 12:12:44;;;;;;;;;;;;;;;;;;5067489;28;19979;-78
2021/10/25 12:15:15;;;;;;;;;;;;;;;;;;5067147;28;19936;-79
2021/10/25 12:17:42;;;;;;;;;;;;;;;;;;5067679;28;20295;-79
2021/10/25 12:20:11;;;;;;;;;;;;;;;;;;5067348;28;20018;-77
2021/10/25 12:22:42;;;;;;;;;;;;;;;;;;5068198;28;20261;-78
2021/10/25 12:25:10;;;;;;;;;;;;;;;;;;5067857;28;19925;-79
2021/10/25 12:27:39;;;;;;;;;;;;;;;;;;5067807;28;19928;-79
2021/10/25 12:30:07;;;;;;;;;;;;;;;;;;5068454;28;20033;-79
2021/10/25 12:32:35;;;;;;;;;;;;;;;;;;5067440;28;19936;-80
2021/10/25 12:35:04;;;;;;;;;;;;;;;;;;5068024;28;19991;-79
2021/10/25 12:37:33;;;;;;;;;;;;;;;;;;5067596;28;19924;-79
2021/10/25 12:40:14;;;;;;;;;;;;;;;;;;5067810;28;19939;-79
2021/10/25 12:42:42;;;;;;;;;;;;;;;;;;5067804;28;19928;-77
2021/10/25 12:45:15;;;;;;;;;;;;;;;;;;5067161;28;19928;-78
2021/10/25 12:47:42;;;;;;;;;;;;;;;;;;5067058;28;20354;-77
2021/10/25 12:50:12;;;;;;;;;;;;;;;;;;5070538;28;19924;-78
2021/10/25 12:52:41;;;;;;;;;;;;;;;;;;5071304;28;19938;-78
2021/10/25 12:55:10;;;;;;;;;;;;;;;;;;5071734;28;19947;-78
2021/10/25 12:57:39;;;;;;;;;;;;;;;;;;5054847;28;19935;-80
2021/10/25 13:00:08;;;;;;;;;;;;;;;;;;5058080;28;19984;-77
2021/10/25 13:02:41;;;;;;;;;;;;;;;;;;5069637;28;20748;-78
2021/10/25 13:05:10;;;;;;;;;;;;;;;;;;5069959;28;19935;-77
2021/10/25 13:07:37;;;;;;;;;;;;;;;;;;5070189;28;19929;-78
2021/10/25 13:10:09;;;;;;;;;;;;;;;;;;5071490;28;19939;-77
2021/10/25 13:12:37;;;;;;;;;;;;;;;;;;5062501;28;19928;-79
2021/10/25 13:15:05;;;;;;;;;;;;;;;;;;5069922;28;20396;-79
2021/10/25 13:17:32;;;;;;;;;;;;;;;;;;5069973;28;19963;-79
2021/10/25 13:19:59;;;;;;;;;;;;;;;;;;5070573;28;19928;-79
2021/10/25 13:22:29;;;;;;;;;;;;;;;;;;5070365;28;20276;-78
2021/10/25 13:24:56;;;;;;;;;;;;;;;;;;5053389;28;20304;-80
2021/10/25 13:27:23;;;;;;;;;;;;;;;;;;5051149;28;19951;-78
2021/10/25 13:29:52;;;;;;;;;;;;;;;;;;5050538;28;19956;-80
2021/10/25 13:32:21;;;;;;;;;;;;;;;;;;5050102;28;19939;-79
2021/10/25 13:34:48;;;;;;;;;;;;;;;;;;5050078;28;19929;-79
2021/10/25 13:37:15;;;;;;;;;;;;;;;;;;5050388;28;19932;-78
2021/10/25 13:39:43;;;;;;;;;;;;;;;;;;5055350;28;19939;-79
2021/10/25 13:42:10;;;;;;;;;;;;;;;;;;5070805;28;19936;-80
2021/10/25 13:44:38;;;;;;;;;;;;;;;;;;5070072;28;19928;-79
2021/10/25 13:47:06;;;;;;;;;;;;;;;;;;5070309;28;20019;-79
2021/10/25 13:49:33;;;;;;;;;;;;;;;;;;5070383;28;20369;-80
2021/10/25 13:52:00;;;;;;;;;;;;;;;;;;5071613;28;19928;-80
2021/10/25 13:54:28;;;;;;;;;;;;;;;;;;5053423;28;19937;-80
2021/10/25 13:56:56;;;;;;;;;;;;;;;;;;5051315;28;19932;-79
2021/10/25 13:59:23;;;;;;;;;;;;;;;;;;5062559;28;20002;-79
2021/10/25 14:01:51;;;;;;;;;;;;;;;;;;5070342;28;19928;-80
2021/10/25 14:04:20;;;;;;;;;;;;;;;;;;5070927;28;19928;-78
2021/10/25 14:06:48;;;;;;;;;;;;;;;;;;5071818;28;20019;-79
2021/10/25 14:09:15;;;;;;;;;;;;;;;;;;5071088;28;19994;-80
2021/10/25 14:11:44;;;;;;;;;;;;;;;;;;5070029;28;19929;-79
2021/10/25 14:14:16;;;;;;;;;;;;;;;;;;5071722;28;20493;-78
2021/10/25 14:16:50;;;;;;;;;;;;;;;;;;5071485;28;19936;-84
2021/10/25 14:19:17;;;;;;;;;;;;;;;;;;5071081;28;19929;-78
2021/10/25 14:21:46;;;;;;;;;;;;;;;;;;5060768;28;20374;-80
2021/10/25 14:24:13;;;;;;;;;;;;;;;;;;5053501;28;20365;-79
2021/10/25 14:26:40;;;;;;;;;;;;;;;;;;5052394;28;19929;-79
2021/10/25 14:29:08;;;;;;;;;;;;;;;;;;5052822;28;19924;-79
2021/10/25 14:31:37;;;;;;;;;;;;;;;;;;5052895;28;20015;-79
2021/10/25 14:34:04;;;;;;;;;;;;;;;;;;5054352;28;19929;-80
2021/10/25 14:36:32;;;;;;;;;;;;;;;;;;5051669;28;19936;-80
2021/10/25 14:39:11;;;;;;;;;;;;;;;;;;5052285;28;20273;-79
2021/10/25 14:41:50;;;;;;;;;;;;;;;;;;5052027;28;19933;-80
2021/10/25 14:44:30;;;;;;;;;;;;;;;;;;5052372;28;19928;-79
2021/10/25 14:47:16;;;;;;;;;;;;;;;;;;5051990;28;19986;-79
2021/10/25 14:55:18;;;;;;;;;;;;;;;;;;5051961;28;19936;-79
2021/10/25 14:57:45;;;;;;;;;;;;;;;;;;5051904;28;19928;-79
2021/10/25 15:00:13;;;;;;;;;;;;;;;;;;5051938;28;19925;-79
2021/10/25 15:02:40;;;;;;;;;;;;;;;;;;5051949;28;19928;-79
2021/10/25 15:05:10;;;;;;;;;;;;;;;;;;5052121;28;19951;-80
2021/10/25 15:07:37;;;;;;;;;;;;;;;;;;5051790;28;20176;-80
2021/10/25 15:10:05;;;;;;;;;;;;;;;;;;5051719;28;19932;-79
2021/10/25 15:12:34;;;;;;;;;;;;;;;;;;5058997;28;19925;-79
2021/10/25 15:15:04;;;;;;;;;;;;;;;;;;5071442;28;19924;-79
2021/10/25 15:17:31;;;;;;;;;;;;;;;;;;5071910;28;19934;-79
2021/10/25 15:19:58;;;;;;;;;;;;;;;;;;5071642;28;20228;-80
2021/10/25 15:22:26;;;;;;;;;;;;;;;;;;5071880;28;19933;-79
2021/10/25 15:24:54;;;;;;;;;;;;;;;;;;5071526;28;20334;-79
2021/10/25 15:27:25;;;;;;;;;;;;;;;;;;5071590;28;19935;-79
2021/10/25 15:29:55;;;;;;;;;;;;;;;;;;5071447;28;20024;-79
2021/10/25 15:32:23;;;;;;;;;;;;;;;;;;5071641;28;20250;-80
2021/10/25 15:34:50;;;;;;;;;;;;;;;;;;5071351;28;19959;-80
2021/10/25 15:37:18;;;;;;;;;;;;;;;;;;5071420;28;19928;-80
2021/10/25 15:39:46;;;;;;;;;;;;;;;;;;5071218;28;19928;-79
2021/10/25 15:42:13;;;;;;;;;;;;;;;;;;5071643;28;20304;-79
2021/10/25 15:44:43;;;;;;;;;;;;;;;;;;5071396;28;20281;-79
2021/10/25 15:47:12;;;;;;;;;;;;;;;;;;5070976;28;20019;-79
2021/10/25 15:49:39;;;;;;;;;;;;;;;;;;5071203;28;20337;-79
2021/10/25 15:52:07;;;;;;;;;;;;;;;;;;5071270;28;19940;-80
2021/10/25 15:54:34;;;;;;;;;;;;;;;;;;5071203;28;19958;-80
2021/10/25 15:57:01;;;;;;;;;;;;;;;;;;5071586;28;19929;-78
2021/10/25 15:59:29;;;;;;;;;;;;;;;;;;5071036;28;19924;-78
2021/10/25 16:01:56;;;;;;;;;;;;;;;;;;5071136;28;19928;-79
2021/10/25 16:04:24;;;;;;;;;;;;;;;;;;5071081;28;20064;-79
2021/10/25 16:06:51;;;;;;;;;;;;;;;;;;5071258;28;19935;-84
2021/10/25 16:09:18;;;;;;;;;;;;;;;;;;5071125;28;20342;-79
2021/10/25 16:11:45;;;;;;;;;;;;;;;;;;5071005;28;19938;-79
2021/10/25 16:14:13;;;;;;;;;;;;;;;;;;5071143;28;20246;-79
2021/10/25 16:16:40;;;;;;;;;;;;;;;;;;5070987;28;20331;-78
2021/10/25 16:19:07;;;;;;;;;;;;;;;;;;5070889;28;19928;-78
2021/10/25 16:21:36;;;;;;;;;;;;;;;;;;5071181;28;19936;-78
2021/10/25 16:24:03;;;;;;;;;;;;;;;;;;5071974;28;20015;-78
2021/10/25 16:26:30;;;;;;;;;;;;;;;;;;5075286;28;19948;-78
2021/10/25 16:28:58;;;;;;;;;;;;;;;;;;5074986;28;19928;-80
2021/10/25 16:31:25;;;;;;;;;;;;;;;;;;5074873;28;20380;-79
2021/10/25 16:33:52;;;;;;;;;;;;;;;;;;5074749;28;20396;-79
2021/10/25 16:36:19;;;;;;;;;;;;;;;;;;5074797;28;19936;-79
2021/10/25 16:38:48;;;;;;;;;;;;;;;;;;5074791;28;19929;-79
2021/10/25 16:41:15;;;;;;;;;;;;;;;;;;5074671;28;19940;-78
2021/10/25 16:43:42;;;;;;;;;;;;;;;;;;5074662;28;20396;-79
2021/10/25 16:46:09;;;;;;;;;;;;;;;;;;5074867;28;19925;-79
2021/10/25 16:48:38;;;;;;;;;;;;;;;;;;5074308;28;19925;-78
2021/10/25 16:51:09;;;;;;;;;;;;;;;;;;5074740;28;19932;-79
2021/10/25 16:53:50;;;;;;;;;;;;;;;;;;5074444;28;20412;-80
2021/10/25 17:04:55;;;;;;;;;;;;;;;;;;5074141;28;20349;-80
2021/10/25 17:10:07;;;;;;;;;;;;;;;;;;5074348;28;19934;-78
2021/10/25 17:12:36;;;;;;;;;;;;;;;;;;5074151;28;19936;-79
2021/10/25 17:15:03;;;;;;;;;;;;;;;;;;5074161;28;20276;-80
2021/10/25 17:17:30;;;;;;;;;;;;;;;;;;5073864;28;19928;-80
2021/10/25 17:19:58;;;;;;;;;;;;;;;;;;5074077;28;19996;-80
2021/10/25 17:22:25;;;;;;;;;;;;;;;;;;5074032;28;19962;-79
2021/10/25 17:24:52;;;;;;;;;;;;;;;;;;5073716;28;20360;-80
2021/10/25 17:27:19;;;;;;;;;;;;;;;;;;5074134;28;19947;-80
2021/10/25 17:29:48;;;;;;;;;;;;;;;;;;5073482;28;20354;-80
2021/10/25 17:32:17;;;;;;;;;;;;;;;;;;5073809;28;19930;-79
2021/10/25 17:34:45;;;;;;;;;;;;;;;;;;5073310;28;19932;-80
2021/10/25 17:37:13;;;;;;;;;;;;;;;;;;5073566;28;19928;-79
2021/10/25 17:39:40;;;;;;;;;;;;;;;;;;5073676;28;20054;-78
2021/10/25 17:42:08;;;;;;;;;;;;;;;;;;5073680;28;20015;-79
2021/10/25 17:44:35;;;;;;;;;;;;;;;;;;5073454;28;19924;-79
2021/10/25 17:47:04;;;;;;;;;;;;;;;;;;5073571;28;20306;-80
2021/10/25 17:49:31;;;;;;;;;;;;;;;;;;5072950;28;19935;-78
2021/10/25 17:51:58;;;;;;;;;;;;;;;;;;5073695;28;19924;-79
2021/10/25 17:54:28;;;;;;;;;;;;;;;;;;5073476;28;19929;-79
2021/10/25 17:56:56;;;;;;;;;;;;;;;;;;5073774;28;20273;-80
2021/10/25 17:59:24;;;;;;;;;;;;;;;;;;5073034;28;19932;-81
2021/10/25 18:01:51;;;;;;;;;;;;;;;;;;5072981;28;20403;-78
2021/10/25 18:04:20;;;;;;;;;;;;;;;;;;5073177;28;19924;-78
2021/10/25 18:06:47;;;;;;;;;;;;;;;;;;5072993;28;19939;-79
2021/10/25 18:09:14;;;;;;;;;;;;;;;;;;5073389;28;19935;-78
2021/10/25 18:11:45;;;;;;;;;;;;;;;;;;5072902;28;19968;-77
2021/10/25 18:14:13;;;;;;;;;;;;;;;;;;5073199;28;19928;-78
2021/10/25 18:16:41;;;;;;;;;;;;;;;;;;5073004;28;20240;-77
2021/10/25 18:19:09;;;;;;;;;;;;;;;;;;5072746;28;19925;-78
2021/10/25 18:21:38;;;;;;;;;;;;;;;;;;5073043;28;19936;-78
2021/10/25 18:24:05;;;;;;;;;;;;;;;;;;5072736;28;19939;-79
2021/10/25 18:26:36;;;;;;;;;;;;;;;;;;5072722;28;20021;-78
2021/10/25 18:29:03;;;;;;;;;;;;;;;;;;5072762;28;20345;-78
2021/10/25 18:31:31;;;;;;;;;;;;;;;;;;5072949;28;19929;-78
2021/10/25 18:33:58;;;;;;;;;;;;;;;;;;5072940;28;19947;-78